ADDS METAR Data INFO
IDs: Format: Raw Decoded Include TAF

Data at: 0855 UTC 19 Jun 2018

KMNH 190830Z AUTO 06008KT 7SM OVC003 13/12 A3019 RMK AO2
KMNH 190812Z AUTO 05008KT 5SM BR OVC003 13/12 A3019 RMK AO2
KMNH 190749Z AUTO 05009KT 5SM BR OVC001 13/13 A3019 RMK AO2
KMNH 190731Z AUTO 05009KT 4SM BR OVC001 13/13 A3018 RMK AO2
KMNH 190712Z AUTO 04010KT 1/2SM FG OVC001 13/13 A3019 RMK AO2 LTG DSNT N AND NE
KMNH 190653Z AUTO 01010KT 1/2SM FG OVC001 13/13 A3018 RMK AO2 LTG DSNT N
KMNH 190630Z AUTO 36008KT 1/2SM FG OVC001 14/14 A3017 RMK AO2
KMNH 190612Z AUTO 35008KT 3SM BR OVC003 14/14 A3017 RMK AO2 LTG DSNT N
KMNH 190554Z AUTO 34010KT 5SM BR OVC003 14/13 A3017 RMK AO2
KMNH 190530Z AUTO 31009KT 5SM BR OVC005 14/13 A3017 RMK AO2
KMNH 190512Z AUTO 32007KT 7SM OVC005 14/13 A3017 RMK AO2
KMNH 190454Z AUTO 33009KT 7SM BKN007 OVC011 14/13 A3017 RMK AO2
KMNH 190430Z AUTO 32007KT 7SM SCT007 SCT011 13/13 A3017 RMK AO2 LTG DSNT N
KMNH 190412Z AUTO 32006KT 10SM CLR 14/12 A3017 RMK AO2
KMNH 190354Z AUTO 30008KT 10SM CLR 14/13 A3016 RMK AO2 LTG DSNT NE
KMNH 190330Z AUTO 29009KT 10SM SCT090 SCT110 15/13 A3016 RMK AO2
KMNH 190312Z AUTO 30011G15KT 10SM SCT085 OVC090 16/13 A3015 RMK AO2 LTG DSNT NW
KMNH 190254Z AUTO 29013KT 10SM BKN085 BKN100 17/13 A3014 RMK AO2 LTG DSNT N
KMNH 190230Z AUTO 16006KT 10SM CLR 20/10 A3013 RMK AO2 LTG DSNT N AND NW
KMNH 190212Z AUTO 15006KT 10SM CLR 20/10 A3012 RMK AO2 LTG DSNT N AND NW
KMNH 190154Z AUTO 15008G16KT 10SM CLR 22/09 A3011 RMK AO2 LTG DSNT N
KMNH 190130Z AUTO 15014G21KT 10SM CLR 22/09 A3011 RMK AO2 LTG DSNT N AND NW
KMNH 190112Z AUTO 16015G19KT 10SM CLR 23/09 A3010 RMK AO2
KMNH 190054Z AUTO 15016G20KT 10SM CLR 23/08 A3010 RMK AO2 LTG DSNT N
KMNH 190030Z AUTO 16017G23KT 10SM CLR 24/08 A3009 RMK AO2
KMNH 190012Z AUTO 16014G24KT 10SM CLR 25/08 A3009 RMK AO2 LTG DSNT N AND NW
KMNH 182354Z AUTO 17015G22KT 10SM CLR 25/07 A3009 RMK AO2
KMNH 182330Z AUTO 17020G24KT 10SM CLR 25/07 A3010 RMK AO2
KMNH 182312Z AUTO 16019G26KT 10SM CLR 25/08 A3010 RMK AO2
KMNH 182254Z AUTO 16020G25KT 10SM SCT120 25/08 A3011 RMK AO2
KMNH 182230Z AUTO 16015G27KT 10SM CLR 25/07 A3011 RMK AO2
KMNH 182212Z AUTO 17019G26KT 10SM CLR 25/07 A3011 RMK AO2
KMNH 182154Z AUTO 16018G26KT 10SM CLR 25/08 A3012 RMK AO2 LTG DSNT NW
KMNH 182130Z AUTO 17012G24KT 10SM CLR 25/08 A3013 RMK AO2
KMNH 182112Z AUTO 15020G23KT 10SM CLR 25/09 A3013 RMK AO2
KMNH 182054Z AUTO 16019G24KT 10SM SCT100 24/08 A3013 RMK AO2
KMNH 182030Z AUTO 16014G22KT 10SM SCT110 23/08 A3014 RMK AO2
KMNH 182012Z AUTO 16013G23KT 10SM SCT110 23/09 A3015 RMK AO2
KMNH 181954Z AUTO 16014G21KT 10SM CLR 23/09 A3015 RMK AO2
KMNH 181930Z AUTO 16018G23KT 10SM CLR 23/11 A3015 RMK AO2
KMNH 181912Z AUTO 16013G20KT 10SM SCT047 SCT050 22/11 A3016 RMK AO2
KMNH 181854Z AUTO 14012G19KT 10SM SCT048 SCT060 22/11 A3016 RMK AO2
KMNH 181830Z AUTO 16011G15KT 10SM SCT041 22/11 A3017 RMK AO2
KMNH 181812Z AUTO 16009G14KT 130V190 10SM BKN041 21/11 A3017 RMK AO2
KMNH 181753Z AUTO 14012G15KT 10SM SCT035 21/12 A3017 RMK AO2
KMNH 181729Z AUTO 12007KT 100V170 10SM CLR 20/12 A3018 RMK AO2
KMNH 181711Z AUTO 16008KT 10SM CLR 19/12 A3018 RMK AO2
KMNH 181654Z AUTO 21006KT 10SM CLR 18/12 A3018 RMK AO2
KMNH 181630Z AUTO 19005KT 10SM SCT016 17/12 A3019 RMK AO2
KMNH 181612Z AUTO 18007KT 10SM SCT016 16/12 A3019 RMK AO2
KMNH 181554Z AUTO 19005KT 10SM SCT012 16/12 A3019 RMK AO2
KMNH 181530Z AUTO 19007KT 10SM BKN012 15/11 A3020 RMK AO2 LTG DSNT NW
KMNH 181512Z AUTO 19006KT 10SM OVC010 14/12 A3020 RMK AO2
KMNH 181453Z AUTO 13005KT 10SM OVC010 13/12 A3020 RMK AO2
KMNH 181430Z AUTO 00000KT 10SM OVC006 12/11 A3020 RMK AO2
KMNH 181412Z AUTO 16003KT 10SM OVC004 12/11 A3020 RMK AO2
KMNH 181353Z AUTO 14005KT 7SM OVC004 11/11 A3020 RMK AO2
KMNH 181330Z AUTO 00000KT 5SM BR OVC004 11/11 A3019 RMK AO2
KMNH 181312Z AUTO 00000KT 10SM OVC004 11/10 A3019 RMK AO2
KMNH 181254Z AUTO 00000KT 10SM OVC004 11/10 A3018 RMK AO2
KMNH 181230Z AUTO 00000KT 4SM BR OVC002 11/10 A3019 RMK AO2
KMNH 181212Z AUTO 00000KT 3SM BR OVC002 11/10 A3018 RMK AO2
KMNH 181154Z AUTO 00000KT 3SM BR OVC002 10/10 A3018 RMK AO2
KMNH 181130Z AUTO 00000KT 7SM OVC004 11/10 A3018 RMK AO2
KMNH 181112Z AUTO 00000KT 7SM OVC006 10/10 A3018 RMK AO2
KMNH 181054Z AUTO 00000KT 10SM BKN004 OVC110 10/10 A3017 RMK AO2
KMNH 181030Z AUTO 34003KT 4SM BR OVC004 11/11 A3017 RMK AO2
KMNH 181012Z AUTO 32003KT 4SM BR OVC004 11/11 A3017 RMK AO2
KMNH 180953Z AUTO 33005KT 1/2SM FG OVC002 11/11 A3017 RMK AO2
KMNH 180929Z AUTO 33004KT 1/2SM FG OVC002 11/11 A3017 RMK AO2
KMNH 180912Z AUTO 33006KT 1 1/4SM BR OVC002 11/11 A3016 RMK AO2
KMNH 180854Z AUTO 32007KT 1 1/4SM BR OVC002 11/11 A3016 RMK AO2
KMNH 180830Z AUTO 35004KT 1/2SM FG OVC002 11/11 A3016 RMK AO2
KMNH 180812Z AUTO 00000KT 3/4SM BR OVC002 11/11 A3016 RMK AO2 VIS 1/4V5
KMNH 180754Z AUTO 00000KT 3/4SM BR OVC002 11/11 A3017 RMK AO2
KMNH 180730Z AUTO 33004KT 1 1/4SM BR OVC002 11/11 A3017 RMK AO2 VIS 1/2V5
KMNH 180712Z AUTO 34004KT 1SM BR OVC002 11/11 A3017 RMK AO2
KMNH 180653Z AUTO 34005KT 1 1/2SM BR OVC002 11/11 A3017 RMK AO2
KMNH 180630Z AUTO 36005KT 2 1/2SM BR OVC002 11/11 A3017 RMK AO2 VIS 1 1/4V5
KMNH 180612Z AUTO 01006KT 1 1/2SM -RA OVC002 11/11 A3017 RMK AO2
KMNH 180554Z AUTO 02007KT 3/4SM BR OVC002 11/11 A3017 RMK AO2
KMNH 180530Z AUTO 05005KT 4SM BR OVC002 11/11 A3019 RMK AO2
KMNH 180512Z AUTO 02004KT 10SM OVC002 11/11 A3019 RMK AO2 LTG DSNT NW
KMNH 180454Z AUTO 02004KT 7SM DZ OVC002 11/11 A3018 RMK AO2 P0006
KMNH 180430Z AUTO 03011KT 7SM RA BKN004 OVC007 11/11 A3016 RMK AO2 P0005
KMNH 180412Z AUTO 01005KT 7SM RA OVC002 11/11 A3019 RMK AO2 LTG DSNT NE AND SE P0003
KMNH 180354Z AUTO 01005KT 5SM RA BKN002 OVC013 11/11 A3018 RMK AO2 LTG DSNT NE P0017
KMNH 180330Z AUTO 35006KT 4SM RA BKN002 BKN009 OVC026 11/11 A3017 RMK AO2 P0011
KMNH 180312Z AUTO 36006KT 1/2SM /VCTSRA OVC002 11/11 A3018 RMK AO2 LTG DSNT SW THRU NW P0004
KMNH 180254Z AUTO 02008KT 1/2SM -VCTSRA OVC002 11/11 A3016 RMK AO2 LTG DSNT SW P0001
KMNH 180230Z AUTO 35012KT 1/2SM -DZ OVC002 12/12 A3013 RMK AO2 VIS 1/4V1 1/2 LTG DSNT W
KMNH 180212Z AUTO 36009KT 10SM BKN004 OVC010 12/12 A3013 RMK AO2 LTG DSNT W
KMNH 180153Z AUTO 36010G14KT 10SM SCT004 BKN010 OVC013 12/12 A3012 RMK AO2 LTG DSNT W
KMNH 180129Z AUTO 36007G15KT 10SM SCT004 SCT009 OVC013 12/12 A3012 RMK AO2 LTG DSNT W
KMNH 180112Z AUTO 35011G16KT 10SM SCT006 BKN009 OVC014 13/12 A3011 RMK AO2
KMNH 180054Z AUTO 36012KT 10SM BKN004 OVC008 13/12 A3010 RMK AO2 LTG DSNT SW AND W
KMNH 180030Z AUTO 35012G16KT 10SM OVC004 13/13 A3009 RMK AO2 LTG DSNT SW
KMNH 180012Z AUTO 35011KT 10SM BKN006 OVC011 13/13 A3008 RMK AO2
KMNH 172354Z AUTO 33008KT 10SM BKN006 OVC011 13/13 A3009 RMK AO2
KMNH 172330Z AUTO 34011G15KT 10SM VCTS OVC009 13/13 A3009 RMK AO2 LTG DSNT NW
KMNH 172312Z AUTO 35010KT 10SM OVC009 13/13 A3009 RMK AO2 LTG DSNT W
KMNH 172254Z AUTO 35012G16KT 10SM VCTS BKN007 OVC012 14/13 A3009 RMK AO2 LTG DSNT NW P0010
KMNH 172230Z AUTO 36010G15KT 10SM VCTS BKN003 OVC020 13/13 A3009 RMK AO2 LTG DSNT SW AND W P0010
KMNH 172212Z AUTO 35009G15KT 2 1/2SM -TSRA BKN003 BKN020 OVC049 13/13 A3008 RMK AO2 LTG DSNT SW THRU NE P0010
KMNH 172154Z AUTO 36011G14KT 4SM +RA BKN003 BKN013 OVC031 13/13 A3008 RMK AO2 LTG DSNT E AND W P0022
KMNH 172130Z AUTO 01009G14KT 5SM /VCTSRA SCT005 BKN018 OVC050 13/13 A3008 RMK AO2 LTG DSNT E AND NW P0014
KMNH 172112Z AUTO 06008G16KT 5SM VCTSRA SCT010 BKN023 OVC038 13/12 A3009 RMK AO2 LTG DSNT NE THRU SE P0007